createdAt,value
2018-09-28T00:00:30.360Z,7.55
2018-09-28T00:02:57.870Z,7.97
2018-09-28T00:05:25.404Z,7.15
2018-09-28T00:07:53.014Z,7.83
2018-09-28T00:10:20.636Z,6.33
2018-09-28T00:12:48.191Z,6.45
2018-09-28T00:15:15.738Z,7.75
2018-09-28T00:17:43.260Z,10.72
2018-09-28T00:20:10.777Z,10.18
2018-09-28T00:22:38.326Z,9.10
2018-09-28T00:25:05.933Z,9.55
2018-09-28T00:27:33.500Z,7.47
2018-09-28T00:30:01.013Z,7.35
2018-09-28T00:32:28.577Z,7.35
2018-09-28T00:34:56.175Z,7.50
2018-09-28T00:37:23.715Z,7.95
2018-09-28T00:39:51.257Z,8.23
2018-09-28T00:42:18.812Z,7.35
2018-09-28T00:44:46.357Z,6.92
2018-09-28T00:47:13.909Z,8.70
2018-09-28T00:49:41.449Z,7.40
2018-09-28T00:52:08.999Z,7.95
2018-09-28T00:54:36.530Z,8.00
2018-09-28T00:57:04.147Z,7.03
2018-09-28T00:59:31.694Z,6.35
2018-09-28T01:01:59.205Z,6.97
2018-09-28T01:04:26.722Z,7.80
2018-09-28T01:06:54.285Z,7.12
2018-09-28T01:09:21.874Z,7.83
2018-09-28T01:11:49.422Z,7.75
2018-09-28T01:14:16.949Z,8.80
2018-09-28T01:16:44.509Z,7.45
2018-09-28T01:19:12.056Z,7.25
2018-09-28T01:21:39.677Z,7.08
2018-09-28T01:24:07.234Z,8.13
2018-09-28T01:26:34.771Z,7.85
2018-09-28T01:29:02.305Z,9.05
2018-09-28T01:31:29.893Z,8.05
2018-09-28T01:33:57.534Z,8.43
2018-09-28T01:36:25.087Z,7.37
2018-09-28T01:38:52.687Z,8.90
2018-09-28T01:41:20.200Z,8.00
2018-09-28T01:43:47.760Z,8.50
2018-09-28T01:46:15.334Z,7.83
2018-09-28T01:48:42.923Z,7.12
2018-09-28T01:51:10.480Z,7.55
2018-09-28T01:53:38.002Z,7.22
2018-09-28T01:56:05.660Z,8.05
2018-09-28T01:58:33.191Z,7.42
2018-09-28T02:01:00.769Z,6.62
2018-09-28T02:03:28.297Z,8.15
2018-09-28T02:05:55.852Z,7.20
2018-09-28T02:08:23.512Z,9.35
2018-09-28T02:10:51.082Z,8.15
2018-09-28T02:13:18.622Z,9.10
2018-09-28T02:15:46.215Z,7.85
2018-09-28T02:18:13.704Z,8.30
2018-09-28T02:20:41.229Z,7.85
2018-09-28T02:23:09.228Z,7.30
2018-09-28T02:25:36.861Z,7.45
2018-09-28T02:28:04.417Z,8.00
2018-09-28T02:30:31.983Z,7.42
2018-09-28T02:32:59.522Z,6.70
2018-09-28T02:35:27.068Z,7.72
2018-09-28T02:37:54.637Z,7.10
2018-09-28T02:40:22.251Z,7.45
2018-09-28T02:42:49.816Z,7.37
2018-09-28T02:45:17.447Z,8.58
2018-09-28T02:47:44.978Z,7.62
2018-09-28T02:50:12.543Z,7.35
2018-09-28T02:52:40.087Z,8.15
2018-09-28T02:55:07.695Z,8.15
2018-09-28T02:57:35.225Z,8.50
2018-09-28T03:00:02.847Z,9.10
2018-09-28T03:02:30.355Z,8.98
2018-09-28T03:04:57.879Z,9.20
2018-09-28T03:07:25.450Z,7.67
2018-09-28T03:09:52.997Z,8.50
2018-09-28T03:12:20.548Z,8.55
2018-09-28T03:14:48.114Z,8.50
2018-09-28T03:17:15.648Z,8.35
2018-09-28T03:19:43.201Z,7.83
2018-09-28T03:22:10.771Z,9.43
2018-09-28T03:24:38.341Z,7.72
2018-09-28T03:27:05.960Z,9.38
2018-09-28T03:29:33.461Z,8.15
2018-09-28T03:32:01.030Z,8.70
2018-09-28T03:34:28.573Z,8.23
2018-09-28T03:36:56.149Z,8.98
2018-09-28T03:39:23.723Z,9.18
2018-09-28T03:41:51.301Z,7.95
2018-09-28T03:44:18.827Z,9.05
2018-09-28T03:46:46.361Z,7.92
2018-09-28T03:49:13.862Z,8.85
2018-09-28T03:51:41.400Z,8.33
2018-09-28T03:54:08.897Z,8.45
2018-09-28T03:56:36.424Z,7.95
2018-09-28T03:59:03.965Z,8.05
2018-09-28T04:01:31.491Z,9.30
2018-09-28T04:03:59.045Z,8.15
2018-09-28T04:06:26.606Z,7.95
2018-09-28T04:08:54.167Z,8.98
2018-09-28T04:11:21.738Z,8.00
2018-09-28T04:13:49.328Z,9.63
2018-09-28T04:16:16.866Z,9.20
2018-09-28T04:18:44.428Z,8.18
2018-09-28T04:21:11.989Z,10.20
2018-09-28T04:23:39.496Z,8.05
2018-09-28T04:26:07.119Z,6.80
2018-09-28T04:28:34.642Z,7.78
2018-09-28T04:31:02.215Z,6.75
2018-09-28T04:33:29.814Z,6.37
2018-09-28T04:35:57.382Z,5.53
2018-09-28T04:38:24.942Z,6.05
2018-09-28T04:40:52.569Z,5.90
2018-09-28T04:43:20.074Z,5.43
2018-09-28T04:45:47.621Z,5.30
2018-09-28T04:48:15.182Z,5.37
2018-09-28T04:50:42.718Z,5.13
2018-09-28T04:53:10.301Z,5.60
2018-09-28T04:55:37.828Z,4.80
2018-09-28T04:58:05.405Z,4.70
2018-09-28T05:00:32.925Z,5.03
2018-09-28T05:03:00.462Z,5.20
2018-09-28T05:05:28.021Z,4.70
2018-09-28T05:07:55.594Z,4.80
2018-09-28T05:10:23.186Z,5.00
2018-09-28T05:12:50.738Z,4.83
2018-09-28T05:15:18.311Z,5.63
2018-09-28T05:17:45.796Z,4.20
2018-09-28T05:20:13.320Z,4.63
2018-09-28T05:22:40.926Z,4.80
2018-09-28T05:25:08.843Z,5.03
2018-09-28T05:27:36.702Z,4.50
2018-09-28T05:30:04.325Z,4.67
2018-09-28T05:32:31.982Z,4.40
2018-09-28T05:37:44.913Z,4.00
2018-09-28T05:40:12.476Z,4.77
2018-09-28T05:42:40.037Z,4.83
2018-09-28T05:45:07.660Z,7.07
2018-09-28T05:47:35.290Z,7.00
2018-09-28T05:50:02.953Z,5.60
2018-09-28T05:52:30.499Z,4.63
2018-09-28T05:54:58.029Z,4.20
2018-09-28T05:57:25.565Z,4.17
2018-09-28T05:59:58.643Z,4.50
2018-09-28T06:02:31.829Z,4.70
2018-09-28T06:05:05.053Z,5.60
2018-09-28T06:07:32.571Z,5.17
2018-09-28T06:10:00.106Z,4.30
2018-09-28T06:12:27.625Z,4.53
2018-09-28T06:14:55.186Z,4.70
2018-09-28T06:17:22.764Z,5.23
2018-09-28T06:19:50.335Z,4.67
2018-09-28T06:22:18.750Z,6.20
2018-09-28T06:24:46.337Z,5.60
2018-09-28T06:27:13.872Z,4.43
2018-09-28T06:29:41.462Z,5.03
2018-09-28T06:32:09.012Z,5.30
2018-09-28T06:34:36.593Z,5.10
2018-09-28T06:37:04.162Z,4.10
2018-09-28T06:39:31.713Z,4.13
2018-09-28T06:41:59.404Z,3.57
2018-09-28T06:44:26.849Z,3.83
2018-09-28T06:46:54.510Z,3.63
2018-09-28T06:49:22.038Z,3.70
2018-09-28T06:51:49.566Z,4.20
2018-09-28T06:54:17.153Z,6.13
2018-09-28T06:56:44.710Z,5.47
2018-09-28T06:59:12.268Z,4.67
2018-09-28T07:01:39.840Z,4.20
2018-09-28T07:04:07.528Z,4.30
2018-09-28T07:06:35.064Z,4.00
2018-09-28T07:09:03.101Z,3.87
2018-09-28T07:11:30.638Z,4.83
2018-09-28T07:13:58.179Z,4.63
2018-09-28T07:16:25.818Z,10.70
2018-09-28T07:18:53.274Z,4.70
2018-09-28T07:21:20.800Z,4.90
2018-09-28T07:23:48.343Z,4.87
2018-09-28T07:26:15.913Z,5.70
2018-09-28T07:28:43.508Z,5.00
2018-09-28T07:31:11.082Z,7.00
2018-09-28T07:33:38.678Z,4.90
2018-09-28T07:36:06.472Z,5.63
2018-09-28T07:38:33.869Z,5.73
2018-09-28T07:41:01.409Z,5.20
2018-09-28T07:43:28.999Z,6.60
2018-09-28T07:45:56.611Z,5.80
2018-09-28T07:48:24.183Z,5.10
2018-09-28T07:50:51.707Z,6.20
2018-09-28T07:53:19.221Z,7.30
2018-09-28T07:55:46.837Z,6.60
2018-09-28T07:58:14.301Z,6.40
2018-09-28T08:00:41.845Z,7.17
2018-09-28T08:03:09.460Z,7.30
2018-09-28T08:05:37.044Z,6.57
2018-09-28T08:08:04.769Z,7.87
2018-09-28T08:10:32.337Z,6.47
2018-09-28T08:12:59.871Z,7.10
2018-09-28T08:15:27.419Z,8.13
2018-09-28T08:17:55.055Z,7.37
2018-09-28T08:20:22.649Z,7.73
2018-09-28T08:22:50.219Z,8.47
2018-09-28T08:25:17.757Z,9.27
2018-09-28T08:27:45.365Z,8.20
2018-09-28T08:30:12.927Z,8.30
2018-09-28T08:32:40.561Z,8.83
2018-09-28T08:35:08.190Z,9.07
2018-09-28T08:37:35.831Z,8.50
2018-09-28T08:40:03.478Z,7.90
2018-09-28T08:42:31.049Z,8.23
2018-09-28T08:44:58.592Z,7.93
2018-09-28T08:47:26.103Z,7.60
2018-09-28T08:49:53.681Z,8.80
2018-09-28T08:52:21.239Z,7.10
2018-09-28T08:54:48.793Z,8.00
2018-09-28T08:57:16.357Z,6.83
2018-09-28T08:59:43.916Z,7.27
2018-09-28T09:02:11.636Z,7.20
2018-09-28T09:04:39.212Z,7.47
2018-09-28T09:07:06.992Z,8.70
2018-09-28T09:09:34.586Z,8.70
2018-09-28T09:12:02.132Z,8.30
2018-09-28T09:14:29.705Z,8.83
2018-09-28T09:16:57.274Z,8.30
2018-09-28T09:19:24.828Z,9.93
2018-09-28T09:21:52.403Z,10.20
2018-09-28T09:24:19.951Z,6.87
2018-09-28T09:26:47.456Z,8.40
2018-09-28T09:29:15.020Z,8.40
2018-09-28T09:31:42.553Z,8.60
2018-09-28T09:34:10.126Z,8.50
2018-09-28T09:36:37.789Z,7.93
2018-09-28T09:39:07.343Z,8.30
2018-09-28T09:41:35.232Z,8.27
2018-09-28T09:44:02.806Z,8.17
2018-09-28T09:46:30.382Z,9.60
2018-09-28T09:48:57.927Z,8.33
2018-09-28T09:51:25.443Z,8.17
2018-09-28T09:53:52.984Z,6.93
2018-09-28T09:56:20.579Z,7.53
2018-09-28T09:58:48.127Z,7.80
2018-09-28T10:01:21.291Z,6.10
2018-09-28T10:03:49.955Z,7.57
2018-09-28T10:06:17.498Z,7.80
2018-09-28T10:08:45.057Z,7.70
2018-09-28T10:11:12.583Z,8.60
2018-09-28T10:13:40.172Z,8.10
2018-09-28T10:16:07.849Z,8.70
2018-09-28T10:18:35.420Z,9.50
2018-09-28T10:21:02.973Z,10.40
2018-09-28T10:23:30.466Z,8.50
2018-09-28T10:25:58.001Z,8.20
2018-09-28T10:28:25.530Z,7.70
2018-09-28T10:30:53.119Z,8.40
2018-09-28T10:33:20.828Z,9.23
2018-09-28T10:35:48.367Z,7.43
2018-09-28T10:38:15.887Z,7.70
2018-09-28T10:40:43.543Z,8.80
2018-09-28T10:43:11.117Z,7.77
2018-09-28T10:45:38.770Z,6.07
2018-09-28T10:48:06.357Z,4.80
2018-09-28T10:50:33.950Z,4.90
2018-09-28T10:53:01.565Z,4.93
2018-09-28T10:55:29.060Z,5.33
2018-09-28T10:57:56.640Z,6.33
2018-09-28T11:00:24.220Z,5.00
2018-09-28T11:02:51.756Z,5.10
2018-09-28T11:05:19.296Z,5.90
2018-09-28T11:07:46.841Z,5.17
2018-09-28T11:10:14.463Z,5.50
2018-09-28T11:12:41.961Z,4.20
2018-09-28T11:15:09.597Z,3.70
2018-09-28T11:17:37.238Z,4.23
2018-09-28T11:20:05.163Z,4.53
2018-09-28T11:22:32.709Z,4.93
2018-09-28T11:25:00.336Z,4.63
2018-09-28T11:27:27.924Z,5.23
2018-09-28T11:29:55.468Z,4.77
2018-09-28T11:32:23.029Z,3.87
2018-09-28T11:34:50.559Z,4.30
2018-09-28T11:37:18.140Z,3.60
2018-09-28T11:39:45.890Z,4.40
2018-09-28T11:42:13.443Z,4.53
2018-09-28T11:44:41.015Z,4.90
2018-09-28T11:47:08.692Z,4.77
2018-09-28T11:49:36.414Z,4.17
2018-09-28T11:52:04.006Z,4.13
2018-09-28T11:54:31.599Z,5.33
2018-09-28T11:56:59.238Z,4.37
2018-09-28T11:59:26.791Z,4.10
2018-09-28T12:01:54.325Z,4.10
2018-09-28T12:04:21.919Z,5.70
2018-09-28T12:06:49.707Z,4.50
2018-09-28T12:09:17.217Z,5.30
2018-09-28T12:11:44.739Z,6.63
2018-09-28T12:14:12.268Z,6.30
2018-09-28T12:16:39.820Z,5.60
2018-09-28T12:19:07.394Z,5.97
2018-09-28T12:21:35.074Z,5.60
2018-09-28T12:24:02.605Z,6.53
2018-09-28T12:26:30.480Z,5.77
2018-09-28T12:28:58.242Z,6.40
2018-09-28T12:31:25.820Z,6.80
2018-09-28T12:33:53.378Z,6.10
2018-09-28T12:36:20.963Z,7.53
2018-09-28T12:38:48.529Z,6.93
2018-09-28T12:41:16.090Z,6.70
2018-09-28T12:43:43.652Z,6.90
2018-09-28T12:46:11.219Z,6.63
2018-09-28T12:48:38.775Z,7.07
2018-09-28T12:51:06.332Z,5.40
2018-09-28T12:53:33.868Z,7.10
2018-09-28T12:56:01.414Z,5.90
2018-09-28T12:58:29.055Z,6.77
2018-09-28T13:00:56.691Z,6.47
2018-09-28T13:03:24.171Z,6.03
2018-09-28T13:05:51.775Z,5.87
2018-09-28T13:08:19.338Z,5.70
2018-09-28T13:10:47.440Z,5.90
2018-09-28T13:13:15.459Z,7.70
2018-09-28T13:15:43.024Z,8.03
2018-09-28T13:18:10.672Z,6.03
2018-09-28T13:20:38.199Z,5.70
2018-09-28T13:23:05.775Z,5.20
2018-09-28T13:25:33.331Z,3.53
2018-09-28T13:28:00.898Z,4.27
2018-09-28T13:30:28.435Z,3.70
2018-09-28T13:32:55.995Z,7.13
2018-09-28T13:35:23.546Z,7.10
2018-09-28T13:37:51.117Z,5.87
2018-09-28T13:40:18.672Z,5.20
2018-09-28T13:42:46.263Z,5.40
2018-09-28T13:45:13.957Z,5.10
2018-09-28T13:47:41.368Z,5.90
2018-09-28T13:50:09.001Z,5.80
2018-09-28T13:52:36.574Z,6.37
2018-09-28T13:55:04.322Z,6.70
2018-09-28T13:57:31.871Z,5.30
2018-09-28T13:59:59.461Z,5.70
2018-09-28T14:02:27.055Z,5.80
2018-09-28T14:04:54.589Z,5.37
2018-09-28T14:07:22.163Z,5.10
2018-09-28T14:09:49.716Z,4.13
2018-09-28T14:12:17.349Z,5.47
2018-09-28T14:14:44.942Z,4.30
2018-09-28T14:17:12.473Z,4.93
2018-09-28T14:19:40.051Z,5.70
2018-09-28T14:22:07.611Z,5.60
2018-09-28T14:24:35.269Z,4.50
2018-09-28T14:27:02.767Z,4.73
2018-09-28T14:29:30.363Z,5.80
2018-09-28T14:31:57.880Z,4.30
2018-09-28T14:34:25.480Z,4.37
2018-09-28T14:36:53.010Z,4.83
2018-09-28T14:39:20.529Z,5.13
2018-09-28T14:41:48.141Z,5.30
2018-09-28T14:44:15.712Z,6.07
2018-09-28T14:46:43.310Z,6.27
2018-09-28T14:49:10.922Z,5.43
2018-09-28T14:51:38.481Z,4.77
2018-09-28T14:54:06.150Z,5.27
2018-09-28T14:56:33.726Z,4.93
2018-09-28T14:59:01.281Z,4.57
2018-09-28T15:01:29.016Z,4.03
2018-09-28T15:03:56.423Z,4.17
2018-09-28T15:06:24.129Z,4.53
2018-09-28T15:08:51.554Z,4.23
2018-09-28T15:11:19.107Z,4.50
2018-09-28T15:13:46.692Z,5.10
2018-09-28T15:16:14.268Z,6.10
2018-09-28T15:18:41.940Z,6.40
2018-09-28T15:21:09.453Z,6.73
2018-09-28T15:23:37.051Z,5.53
2018-09-28T15:26:04.599Z,6.00
2018-09-28T15:28:32.129Z,6.60
2018-09-28T15:30:59.680Z,7.33
2018-09-28T15:33:27.231Z,6.60
2018-09-28T15:35:54.813Z,5.47
2018-09-28T15:38:22.392Z,4.80
2018-09-28T15:40:49.962Z,5.50
2018-09-28T15:43:17.470Z,5.03
2018-09-28T15:45:45.041Z,5.70
2018-09-28T15:48:12.585Z,4.70
2018-09-28T15:50:40.113Z,4.83
2018-09-28T15:53:07.695Z,5.40
2018-09-28T15:55:35.214Z,6.27
2018-09-28T15:58:02.806Z,5.73
2018-09-28T16:00:30.385Z,5.57
2018-09-28T16:02:57.935Z,5.30
2018-09-28T16:05:25.594Z,5.03
2018-09-28T16:07:53.132Z,5.80
2018-09-28T16:10:20.722Z,6.10
2018-09-28T16:12:48.348Z,5.93
2018-09-28T16:15:15.914Z,5.93
2018-09-28T16:17:43.451Z,5.50
2018-09-28T16:20:10.976Z,5.33
2018-09-28T16:22:38.566Z,4.70
2018-09-28T16:25:06.150Z,5.10
2018-09-28T16:27:33.782Z,5.30
2018-09-28T16:30:01.382Z,4.93
2018-09-28T16:32:28.980Z,5.03
2018-09-28T16:34:56.528Z,3.87
2018-09-28T16:37:24.373Z,4.40
2018-09-28T16:39:52.018Z,4.53
2018-09-28T16:42:19.596Z,4.83
2018-09-28T16:44:47.167Z,3.60
2018-09-28T16:47:14.716Z,4.37
2018-09-28T16:49:42.300Z,4.40
2018-09-28T16:52:09.837Z,5.60
2018-09-28T16:54:37.394Z,4.50
2018-09-28T16:57:04.925Z,4.27
2018-09-28T16:59:32.545Z,4.77
2018-09-28T17:02:00.158Z,4.87
2018-09-28T17:04:27.790Z,4.10
2018-09-28T17:06:55.343Z,4.40
2018-09-28T17:09:22.934Z,4.40
2018-09-28T17:11:50.479Z,4.53
2018-09-28T17:14:18.049Z,4.33
2018-09-28T17:16:45.596Z,4.53
2018-09-28T17:19:13.200Z,4.97
2018-09-28T17:21:40.833Z,5.33
2018-09-28T17:24:08.554Z,5.23
2018-09-28T17:26:36.544Z,5.60
2018-09-28T17:29:05.646Z,4.97
2018-09-28T17:31:33.767Z,5.27
2018-09-28T17:34:01.461Z,4.30
2018-09-28T17:36:28.984Z,8.43
2018-09-28T17:38:56.604Z,14.90
2018-09-28T17:41:24.380Z,14.90
2018-09-28T17:43:51.939Z,12.37
2018-09-28T17:46:19.579Z,10.20
2018-09-28T17:48:47.223Z,8.70
2018-09-28T17:51:14.886Z,10.23
2018-09-28T17:53:42.462Z,7.97
2018-09-28T17:56:10.135Z,8.80
2018-09-28T17:58:37.702Z,9.50
2018-09-28T18:01:05.371Z,9.40
2018-09-28T18:03:32.981Z,9.20
2018-09-28T18:06:00.606Z,9.07
2018-09-28T18:08:29.109Z,8.90
2018-09-28T18:10:56.762Z,7.50
2018-09-28T18:13:24.395Z,8.87
2018-09-28T18:15:52.043Z,7.97
2018-09-28T18:18:19.700Z,7.63
2018-09-28T18:20:47.370Z,6.93
2018-09-28T18:23:14.989Z,7.20
2018-09-28T18:25:42.671Z,8.17
2018-09-28T18:28:10.352Z,7.43
2018-09-28T18:30:38.053Z,8.07
2018-09-28T18:33:05.870Z,7.63
2018-09-28T18:35:33.588Z,8.70
2018-09-28T18:38:01.369Z,7.97
2018-09-28T18:40:29.242Z,8.50
2018-09-28T18:42:57.881Z,10.83
2018-09-28T18:45:26.370Z,9.30
2018-09-28T18:47:55.318Z,8.60
2018-09-28T18:50:24.428Z,9.93
2018-09-28T18:52:53.526Z,10.07
2018-09-28T18:55:21.906Z,8.40
2018-09-28T18:57:50.311Z,9.57
2018-09-28T19:00:18.844Z,8.57
2018-09-28T19:02:46.911Z,9.50
2018-09-28T19:05:15.094Z,8.80
2018-09-28T19:07:44.649Z,9.00
2018-09-28T19:10:13.519Z,8.53
2018-09-28T19:12:41.969Z,9.40
2018-09-28T19:15:09.563Z,8.50
2018-09-28T19:17:37.253Z,8.10
2018-09-28T19:20:06.586Z,8.80
2018-09-28T19:22:34.553Z,10.10
2018-09-28T19:25:02.257Z,10.27
2018-09-28T19:27:29.920Z,8.90
2018-09-28T19:29:57.598Z,10.00
2018-09-28T19:32:25.834Z,9.60
2018-09-28T19:34:53.830Z,8.73
2018-09-28T19:37:21.607Z,10.20
2018-09-28T19:39:49.580Z,8.60
2018-09-28T19:42:17.241Z,9.00
2018-09-28T19:44:44.921Z,8.80
2018-09-28T19:47:12.569Z,8.87
2018-09-28T19:49:40.268Z,9.80
2018-09-28T19:52:08.771Z,8.90
2018-09-28T19:54:36.455Z,9.20
2018-09-28T19:57:04.189Z,10.17
2018-09-28T19:59:31.858Z,8.10
2018-09-28T20:01:59.567Z,9.77
2018-09-28T20:04:27.237Z,8.67
2018-09-28T20:06:54.959Z,7.93
2018-09-28T20:09:22.730Z,8.57
2018-09-28T20:11:50.963Z,7.90
2018-09-28T20:14:18.654Z,8.70
2018-09-28T20:16:46.319Z,7.83
2018-09-28T20:19:14.008Z,9.17
2018-09-28T20:21:41.748Z,8.50
2018-09-28T20:24:09.441Z,8.13
2018-09-28T20:26:39.609Z,10.07
2018-09-28T20:29:07.473Z,9.80
2018-09-28T20:31:35.164Z,9.13
2018-09-28T20:34:03.799Z,10.17
2018-09-28T20:36:31.616Z,11.03
2018-09-28T20:38:59.337Z,9.70
2018-09-28T20:41:27.091Z,11.40
2018-09-28T20:43:54.965Z,11.40
2018-09-28T20:46:22.663Z,10.53
2018-09-28T20:48:50.339Z,10.03
2018-09-28T20:51:18.031Z,11.20
2018-09-28T20:53:45.691Z,9.93
2018-09-28T20:56:13.326Z,9.77
2018-09-28T20:58:42.391Z,9.53
2018-09-28T21:01:10.817Z,10.73
2018-09-28T21:03:38.465Z,10.30
2018-09-28T21:06:06.127Z,10.77
2018-09-28T21:08:34.248Z,10.57
2018-09-28T21:11:01.871Z,10.87
2018-09-28T21:13:29.588Z,10.47
2018-09-28T21:15:57.180Z,11.83
2018-09-28T21:18:24.995Z,11.17
2018-09-28T21:20:53.068Z,11.80
2018-09-28T21:23:20.689Z,13.37
2018-09-28T21:25:56.176Z,12.47
2018-09-28T21:28:25.666Z,13.53
2018-09-28T21:30:53.242Z,13.77
2018-09-28T21:33:20.883Z,17.30
2018-09-28T21:35:48.544Z,14.07
2018-09-28T21:38:16.158Z,15.53
2018-09-28T21:40:43.858Z,13.83
2018-09-28T21:43:11.466Z,13.80
2018-09-28T21:45:39.040Z,14.00
2018-09-28T21:48:06.734Z,13.60
2018-09-28T21:50:34.327Z,13.97
2018-09-28T21:53:01.959Z,12.77
2018-09-28T21:55:29.526Z,13.97
2018-09-28T21:57:57.109Z,13.50
2018-09-28T22:00:24.716Z,13.73
2018-09-28T22:02:52.299Z,13.03
2018-09-28T22:05:19.940Z,11.67
2018-09-28T22:07:47.498Z,12.20
2018-09-28T22:10:15.071Z,11.77
2018-09-28T22:12:42.633Z,13.50
2018-09-28T22:15:10.502Z,12.37
2018-09-28T22:17:38.066Z,10.30
2018-09-28T22:20:05.949Z,11.63
2018-09-28T22:22:33.697Z,11.70
2018-09-28T22:25:01.227Z,11.17
2018-09-28T22:27:28.798Z,11.00
2018-09-28T22:29:56.370Z,10.50
2018-09-28T22:32:23.928Z,11.47
2018-09-28T22:34:51.519Z,10.73
2018-09-28T22:37:19.049Z,10.20
2018-09-28T22:39:46.619Z,10.63
2018-09-28T22:42:14.207Z,10.50
2018-09-28T22:44:41.781Z,10.73
2018-09-28T22:47:09.374Z,9.63
2018-09-28T22:49:36.913Z,9.90
2018-09-28T22:52:04.458Z,8.97
2018-09-28T22:54:32.001Z,9.70
2018-09-28T22:56:59.528Z,9.17
2018-09-28T22:59:27.080Z,8.87
2018-09-28T23:01:54.622Z,8.20
2018-09-28T23:04:22.191Z,8.10
2018-09-28T23:06:49.746Z,8.53
2018-09-28T23:09:17.300Z,8.17
2018-09-28T23:11:44.867Z,8.40
2018-09-28T23:14:12.394Z,7.70
2018-09-28T23:16:39.966Z,8.03
2018-09-28T23:19:07.512Z,7.43
2018-09-28T23:21:35.075Z,8.03
2018-09-28T23:24:02.614Z,8.13
2018-09-28T23:26:30.163Z,6.93
2018-09-28T23:28:57.713Z,6.63
2018-09-28T23:31:25.288Z,6.93
2018-09-28T23:33:52.929Z,7.83
2018-09-28T23:36:20.502Z,7.20
2018-09-28T23:38:48.142Z,6.23
2018-09-28T23:41:15.674Z,6.83
2018-09-28T23:43:43.286Z,7.00
2018-09-28T23:46:10.958Z,6.50
2018-09-28T23:48:38.518Z,6.63
2018-09-28T23:51:06.139Z,6.53
2018-09-28T23:53:33.665Z,6.13
2018-09-28T23:56:01.207Z,6.40
2018-09-28T23:58:28.720Z,6.13
